Flight Track Log - Related Links

Times and Time Zones

All times are in EDT time to prevent confusion due to time zone crossing. See the UAL252 flight status page for this flight to view local times or setup timezone preferences in your user account.

Time Position Orientation Groundspeed Altitude Reporting Facility
EDT Latitude Longitude Course Direction KTS MPH feet Rate Location/Type
Fri 06:02:26 PM 39.1833 -76.8333 270° West 228 262 5,400  Level Potomac TRACON
Fri 06:03:00 PM 39.2000 -77.0967 270° West  Level FlightAware Approximate
Fri 06:03:26 PM 39.2000 -76.9333 282° West 259 298 8,100  Level Potomac TRACON
Fri 06:04:00 PM 39.1395 -77.2008 211° Southwest  Level FlightAware Approximate
Fri 06:04:32 PM 39.2000 -77.0333 270° West 289 333 10,700  Level Potomac TRACON
Fri 06:05:00 PM 39.0423 -77.2764 211° Southwest  Level FlightAware Approximate
Fri 06:05:33 PM 39.2000 -77.1500 270° West 355 409 12,300  Level Potomac TRACON
Fri 06:06:00 PM 38.9459 -77.3528 207° Southwest  Level FlightAware Approximate
Fri 06:06:33 PM 39.1167 -77.2333 218° Southwest 387 445 14,800  Level Potomac TRACON
Fri 06:07:33 PM 39.0167 -77.3167 213° Southwest 402 463 17,000 1,957 Climbing Potomac TRACON
Fri 06:09:37 PM 38.8072 -77.4564 207° Southwest 436 502 20,800 1,728 Climbing Washington Center
Fri 06:10:37 PM 38.7017 -77.5336 210° Southwest 431 496 22,300 1,537 Climbing Washington Center
Fri 06:11:38 PM 38.6064 -77.6294 218° Southwest 438 504 23,900 1,513 Climbing Washington Center
Fri 06:12:36 PM 38.5108 -77.7328 220° Southwest 449 517 25,300 1,513 Climbing Washington Center
Fri 06:13:37 PM 38.4375 -77.8606 234° Southwest 442 509 26,900 1,636 Climbing Washington Center
Fri 06:14:37 PM 38.3703 -77.9911 237° Southwest 447 514 28,600 1,400 Climbing Washington Center
Fri 06:15:37 PM 38.3008 -78.1239 236° Southwest 453 521 29,700 1,289 Climbing Washington Center
Fri 06:16:38 PM 38.2292 -78.2589 236° Southwest 460 529 31,200 1,109 Climbing Washington Center
Fri 06:17:36 PM 38.1572 -78.3936 236° Southwest 465 535 31,900 508 Climbing Washington Center
Fri 06:18:36 PM 38.1086 -78.5078 242° Southwest 465 535 32,200 600 Climbing Washington Center
Fri 06:19:36 PM 38.0567 -78.6642 247° West 452 520 33,100 893 Climbing Washington Center
Fri 06:20:37 PM 38.0069 -78.8122 247° West 452 520 34,000 443 Climbing Washington Center
Fri 06:21:38 PM 37.9525 -78.9706 246° West 457 526 34,000  Level Washington Center
Fri 06:22:37 PM 37.8961 -79.1206 245° Southwest 462 532 34,000  Level Washington Center
Fri 06:23:38 PM 37.8294 -79.2622 239° Southwest 462 532 34,000  Level Washington Center
Fri 06:24:37 PM 37.7669 -79.3878 238° Southwest 473 544 34,000  Level Washington Center
Fri 06:25:38 PM 37.6892 -79.5361 237° Southwest 473 544 34,000  Level Washington Center
Fri 06:26:36 PM 37.6289 -79.6589 238° Southwest 468 539 34,000  Level Washington Center
Fri 06:27:37 PM 37.5528 -79.8067 237° Southwest 463 533 34,000  Level Washington Center
Fri 06:28:37 PM 37.4897 -79.9342 238° Southwest 469 540 34,000  Level Washington Center
Fri 06:29:38 PM 37.4200 -80.0689 237° Southwest 469 540 34,000  Level Washington Center
Fri 06:30:44 PM 37.3397 -80.2228 237° Southwest 475 547 34,000  Level Atlanta Center
Fri 06:31:44 PM 37.2708 -80.3592 238° Southwest 475 547 34,000  Level Atlanta Center
Fri 06:32:44 PM 37.2017 -80.4900 236° Southwest 470 541 34,000  Level Atlanta Center
Fri 06:33:44 PM 37.1306 -80.6258 237° Southwest 470 541 34,000  Level Atlanta Center
Fri 06:34:44 PM 37.0639 -80.7744 241° Southwest 470 541 34,000  Level Atlanta Center
Fri 06:35:44 PM 37.0133 -80.9144 246° West 452 520 34,000  Level Atlanta Center
Fri 06:36:44 PM 36.9644 -81.0514 246° West 437 503 34,000  Level Atlanta Center
Fri 06:37:44 PM 36.9194 -81.1778 246° West 437 503 34,000  Level Atlanta Center
Fri 06:38:44 PM 36.8706 -81.3144 246° West 432 497 34,000  Level Atlanta Center
Fri 06:39:44 PM 36.8214 -81.4508 246° West 432 497 34,000  Level Atlanta Center
Fri 06:40:44 PM 36.7761 -81.5844 247° West 426 490 34,000  Level Atlanta Center
Fri 06:41:44 PM 36.7247 -81.7258 246° West 431 496 34,000  Level Atlanta Center
Fri 06:42:44 PM 36.6731 -81.8647 245° Southwest 436 502 34,000  Level Atlanta Center
Fri 06:43:44 PM 36.6192 -82.0136 246° West 441 507 34,000  Level Atlanta Center
Fri 06:44:44 PM 36.5653 -82.1519 244° Southwest 441 507 34,000  Level Atlanta Center
Fri 06:45:44 PM 36.5150 -82.2875 245° Southwest 446 513 34,000  Level Atlanta Center
Fri 06:46:44 PM 36.4628 -82.4253 245° Southwest 446 513 34,000  Level Atlanta Center
Fri 06:47:44 PM 36.4122 -82.5656 246° West 446 513 34,000  Level Atlanta Center
Fri 06:48:44 PM 36.3575 -82.7058 244° Southwest 446 513 34,000  Level Atlanta Center
Fri 06:49:44 PM 36.3069 -82.8406 245° Southwest 446 513 34,000  Level Atlanta Center
Fri 06:50:44 PM 36.2561 -82.9806 246° West 446 513 34,000  Level Atlanta Center
Fri 06:51:44 PM 36.2028 -83.1175 244° Southwest 446 513 34,000  Level Atlanta Center
Fri 06:52:44 PM 36.1497 -83.2544 244° Southwest 446 513 34,000  Level Atlanta Center
Fri 06:53:44 PM 36.0961 -83.3936 245° Southwest 446 513 34,000  Level Atlanta Center
Fri 06:54:44 PM 36.0447 -83.5303 245° Southwest 446 513 34,000  Level Atlanta Center
Fri 06:55:44 PM 35.9911 -83.6717 245° Southwest 446 513 34,000  Level Atlanta Center
Fri 06:56:44 PM 35.9433 -83.7925 244° Southwest 446 513 34,000  Level Atlanta Center
Fri 06:57:44 PM 35.8808 -83.9261 240° Southwest 446 513 34,000  Level Atlanta Center
Fri 06:58:44 PM 35.7956 -84.0489 229° Southwest 464 534 34,000  Level Atlanta Center
Fri 06:59:44 PM 35.7078 -84.1692 228° Southwest 475 547 34,000  Level Atlanta Center
Fri 07:00:44 PM 35.6219 -84.2867 228° Southwest 475 547 34,000  Level Atlanta Center
Fri 07:01:44 PM 35.5361 -84.4064 229° Southwest 475 547 34,000  Level Atlanta Center
Fri 07:02:44 PM 35.4503 -84.5283 229° Southwest 475 547 34,000  Level Atlanta Center
Fri 07:03:44 PM 35.3622 -84.6475 228° Southwest 475 547 34,000  Level Atlanta Center
Fri 07:04:44 PM 35.2758 -84.7664 228° Southwest 475 547 34,000  Level Atlanta Center
Fri 07:05:44 PM 35.1917 -84.8850 229° Southwest 475 547 34,000 100 Level Atlanta Center
Fri 07:06:44 PM 35.1053 -85.0011 228° Southwest 469 540 34,200 500 Climbing Atlanta Center
Fri 07:07:44 PM 35.0189 -85.1192 228° Southwest 469 540 35,000 900 Climbing Atlanta Center
Fri 07:08:44 PM 34.9342 -85.2347 228° Southwest 463 533 36,000 500 Climbing Atlanta Center
Fri 07:09:44 PM 34.8475 -85.3497 227° Southwest 463 533 36,000  Level Atlanta Center
Fri 07:10:44 PM 34.7650 -85.4622 228° Southwest 463 533 36,000  Level Atlanta Center
Fri 07:11:44 PM 34.6781 -85.5744 227° Southwest 463 533 36,000  Level Atlanta Center
Fri 07:12:44 PM 34.5950 -85.6892 229° Southwest 463 533 36,000  Level Atlanta Center
Fri 07:13:44 PM 34.5081 -85.8033 227° Southwest 463 533 36,000  Level Atlanta Center
Fri 07:14:44 PM 34.4144 -85.9247 227° Southwest 458 527 36,000 50 Level Atlanta Center
Fri 07:15:44 PM 34.3292 -86.0386 228° Southwest 464 534 36,100  Climbing Atlanta Center
Fri 07:16:44 PM 34.2436 -86.1497 227° Southwest 464 534 36,000 -50 Descending Atlanta Center
Fri 07:17:44 PM 34.1583 -86.2606 227° Southwest 464 534 36,000  Level Atlanta Center
Fri 07:18:44 PM 34.0750 -86.3686 227° Southwest 464 534 36,000 -50 Level Atlanta Center
Fri 07:19:44 PM 34.0019 -86.4694 229° Southwest 459 528 35,900  Descending Atlanta Center
Fri 07:20:44 PM 33.9142 -86.5794 226° Southwest 459 528 36,000 50 Climbing Atlanta Center
Fri 07:21:44 PM 33.8261 -86.6919 227° Southwest 459 528 36,000  Level Atlanta Center
Fri 07:22:44 PM 33.7403 -86.8042 227° Southwest 459 528 36,000  Level Atlanta Center
Fri 07:23:44 PM 33.6625 -86.9214 231° Southwest 464 534 36,000 50 Level Atlanta Center
Fri 07:24:44 PM 33.6072 -87.0494 243° Southwest 452 520 36,100  Climbing Atlanta Center
Fri 07:25:44 PM 33.5539 -87.1819 244° Southwest 447 514 36,000 -50 Descending Atlanta Center
Fri 07:26:44 PM 33.5025 -87.3122 245° Southwest 441 507 36,000 -45 Level Atlanta Center
Fri 07:27:56 PM 33.4400 -87.4694 245° Southwest 435 501 35,900  Descending Memphis Center
Fri 07:28:56 PM 33.3864 -87.6006 244° Southwest 435 501 36,000 50 Climbing Memphis Center
Fri 07:29:56 PM 33.3331 -87.7292 244° Southwest 435 501 36,000  Level Memphis Center
Fri 07:30:56 PM 33.2814 -87.8575 244° Southwest 435 501 36,000  Level Memphis Center
Fri 07:31:56 PM 33.2294 -87.9856 244° Southwest 430 495 36,000  Level Memphis Center
Fri 07:32:56 PM 33.1756 -88.1161 244° Southwest 430 495 36,000  Level Memphis Center
Fri 07:33:56 PM 33.1256 -88.2439 245° Southwest 430 495 36,000  Level Memphis Center
Fri 07:34:56 PM 33.0756 -88.3739 245° Southwest 430 495 36,000  Level Memphis Center
Fri 07:35:56 PM 33.0211 -88.5014 243° Southwest 430 495 36,000  Level Memphis Center
Fri 07:36:56 PM 32.9667 -88.6314 244° Southwest 430 495 36,000  Level Memphis Center
Fri 07:37:56 PM 32.9142 -88.7586 244° Southwest 430 495 36,000  Level Memphis Center
Fri 07:38:56 PM 32.8572 -88.8908 243° Southwest 430 495 36,000  Level Memphis Center
Fri 07:39:57 PM 32.8025 -89.0153 242° Southwest 430 495 36,000  Level Memphis Center
Fri 07:40:56 PM 32.7494 -89.1444 244° Southwest 430 495 36,000  Level Memphis Center
Fri 07:41:56 PM 32.6942 -89.2736 243° Southwest 430 495 36,000  Level Memphis Center
Fri 07:42:56 PM 32.6389 -89.4025 243° Southwest 430 495 36,000  Level Memphis Center
Fri 07:43:56 PM 32.5836 -89.5289 243° Southwest 430 495 36,000  Level Memphis Center
Fri 07:44:56 PM 32.5342 -89.6625 246° West 430 495 36,000  Level Memphis Center
Fri 07:45:56 PM 32.4889 -89.7958 248° West 435 501 36,000  Level Memphis Center
Fri 07:46:56 PM 32.4436 -89.9289 248° West 440 506 36,000  Level Memphis Center
Fri 07:47:56 PM 32.3981 -90.0619 248° West 440 506 36,000  Level Memphis Center
Fri 07:48:56 PM 32.3503 -90.1950 247° West 440 506 36,000  Level Memphis Center
Fri 07:49:56 PM 32.3025 -90.3253 247° West 440 506 36,000  Level Memphis Center
Fri 07:50:56 PM 32.2544 -90.4556 246° West 440 506 36,000  Level Memphis Center
Fri 07:51:56 PM 32.2061 -90.5881 247° West 440 506 36,000 -58 Level Memphis Center
Fri 07:52:40 PM 32.1731 -90.6975 250° West 436 502 35,900  Descending Houston Center
Fri 07:53:42 PM 32.1364 -90.8114 249° West 436 502 36,000 48 Climbing Houston Center
Fri 07:54:44 PM 32.0856 -90.9719 250° West 438 504 36,000  Level Houston Center
Fri 07:55:46 PM 32.0431 -91.1047 249° West 436 502 36,000  Level Houston Center
Fri 07:56:48 PM 32.0067 -91.2403 252° West 433 498 36,000  Level Houston Center
Fri 07:57:50 PM 31.9731 -91.3756 254° West 431 496 36,000  Level Houston Center
Fri 07:58:52 PM 31.9444 -91.5133 256° West 433 498 36,000  Level Houston Center
Fri 07:59:54 PM 31.9150 -91.6525 256° West 438 504 36,000  Level Houston Center
Fri 08:00:56 PM 31.8772 -91.8178 255° West 439 505 36,000  Level Houston Center
Fri 08:01:57 PM 31.8467 -91.9558 255° West 436 502 36,000  Level Houston Center
Fri 08:02:59 PM 31.8133 -92.1025 255° West 436 502 36,000 -48 Level Houston Center
Fri 08:04:01 PM 31.7822 -92.2389 255° West 435 501 35,900 -48 Descending Houston Center
Fri 08:05:03 PM 31.7497 -92.3758 254° West 437 503 35,900  Level Houston Center
Fri 08:06:05 PM 31.7208 -92.5131 256° West 436 502 35,900  Level Houston Center
Fri 08:07:07 PM 31.6983 -92.6522 259° West 435 501 35,900 48 Level Houston Center
Fri 08:08:09 PM 31.6756 -92.7922 259° West 437 503 36,000  Climbing Houston Center
Fri 08:09:11 PM 31.6492 -92.9586 259° West 435 501 35,900 -49 Descending Houston Center
Fri 08:10:12 PM 31.6264 -93.0967 259° West 433 498 35,900 49 Level Houston Center
Fri 08:11:14 PM 31.6108 -93.2372 263° West 436 502 36,000 48 Climbing Houston Center
Fri 08:12:16 PM 31.6019 -93.3903 266° West 431 496 36,000  Level Houston Center
Fri 08:13:18 PM 31.5919 -93.5303 265° West 430 495 36,000  Level Houston Center
Fri 08:14:20 PM 31.5883 -93.6683 268° West 432 497 36,000 -242 Level Houston Center
Fri 08:15:22 PM 31.5847 -93.8092 268° West 430 495 35,500 -726 Descending Houston Center
Fri 08:16:24 PM 31.5200 -93.9281 237° Southwest 441 507 34,500 -1,512 Descending Houston Center
Fri 08:17:25 PM 31.3756 -93.9914 201° Southwest 457 526 32,400 -2,000 Descending Houston Center
Fri 08:18:27 PM 31.2531 -94.0306 195° South 454 522 30,400 -2,032 Descending Houston Center
Fri 08:19:29 PM 31.1217 -94.0725 195° South 478 550 28,200 -2,129 Descending Houston Center
Fri 08:20:31 PM 30.9936 -94.1133 195° South 476 548 26,000 -2,226 Descending Houston Center
Fri 08:21:33 PM 30.8678 -94.1533 195° South 447 514 23,600 -2,226 Descending Houston Center
Fri 08:22:35 PM 30.7569 -94.1889 195° South 421 484 21,400 -2,049 Descending Houston Center
Fri 08:23:36 PM 30.6506 -94.2219 195° South 402 463 19,400 -2,000 Descending Houston Center
Fri 08:24:38 PM 30.5469 -94.2544 195° South 391 450 17,300 -1,935 Descending Houston Center
Fri 08:25:40 PM 30.4456 -94.2867 195° South 382 440 15,400 -1,887 Descending Houston Center
Fri 08:26:42 PM 30.3572 -94.3433 209° Southwest 381 438 13,400 -1,814 Descending Houston Center
Fri 08:27:49 PM 30.2742 -94.4731 233° Southwest 383 441 11,500 -1,258 Descending Houston Center
Fri 08:28:46 PM 30.2256 -94.5528 235° Southwest 368 423 10,800 -958 Descending Houston Center
Fri 08:29:48 PM 30.1742 -94.6339 234° Southwest 338 389 9,600 -1,268 Descending Houston Center
Fri 08:30:49 PM 30.1242 -94.7117 233° Southwest 318 366 8,200 -1,190 Descending Houston Center
Fri 08:31:54 PM 30.0644 -94.8022 233° Southwest 289 333 7,100 -581 Descending Houston Center
Fri 08:32:53 PM 30.0283 -94.8611 235° Southwest 295 339 7,000 -298 Descending Houston Center
Fri 08:33:55 PM 29.9931 -94.9475 245° Southwest 271 312 6,500 -550 Descending Houston Center
Fri 08:34:53 PM 29.9925 -95.0189 270° West 226 260 5,900 -1,024 Descending Houston Center
Fri 08:35:58 PM 29.9933 -95.0903 271° West 220 253 4,400 -1,417 Descending Houston Center
Fri 08:37:00 PM 29.9936 -95.1536 270° West 204 235 2,900 -1,113 Descending Houston Center
Fri 08:38:02 PM 29.9939 -95.2086 270° West 180 207 2,100 -829 Descending Houston Center
Fri 08:39:03 PM 29.9922 -95.2628 268° West 145 167 1,200 -821 Descending Houston Center
Fri 08:39:59 PM 29.9939 -95.3058 273° West 146 168 500 -750 Descending Houston Center

Login

Don't have an account? Register now (free) for customized features, flight alerts, and more!